createdAt,value
2019-02-16T00:00:47.135Z,35.77
2019-02-16T00:02:56.468Z,37.63
2019-02-16T00:05:03.458Z,41.57
2019-02-16T00:07:10.354Z,40.37
2019-02-16T00:09:17.374Z,39.20
2019-02-16T00:11:25.913Z,40.37
2019-02-16T00:13:33.074Z,36.13
2019-02-16T00:15:40.422Z,39.90
2019-02-16T00:17:47.683Z,34.37
2019-02-16T00:19:54.353Z,40.73
2019-02-16T00:22:01.133Z,35.03
2019-02-16T00:24:08.605Z,37.67
2019-02-16T00:26:15.687Z,31.43
2019-02-16T00:28:23.405Z,38.43
2019-02-16T00:30:30.599Z,36.50
2019-02-16T00:32:37.431Z,33.83
2019-02-16T00:34:44.455Z,41.77
2019-02-16T00:36:51.400Z,42.10
2019-02-16T00:38:58.506Z,44.00
2019-02-16T00:41:05.815Z,41.27
2019-02-16T00:43:12.728Z,44.67
2019-02-16T00:45:19.619Z,55.33
2019-02-16T00:47:27.313Z,40.47
2019-02-16T00:49:34.834Z,47.93
2019-02-16T00:51:42.480Z,48.57
2019-02-16T00:53:49.710Z,46.03
2019-02-16T00:55:57.027Z,53.27
2019-02-16T00:58:04.370Z,53.70
2019-02-16T01:00:13.634Z,52.43
2019-02-16T01:02:21.299Z,52.57
2019-02-16T01:04:28.340Z,48.93
2019-02-16T01:06:35.621Z,47.20
2019-02-16T01:08:42.395Z,58.80
2019-02-16T01:10:49.262Z,51.73
2019-02-16T01:12:56.298Z,55.43
2019-02-16T01:15:03.704Z,58.77
2019-02-16T01:17:10.735Z,53.20
2019-02-16T01:19:17.842Z,60.03
2019-02-16T01:21:24.774Z,53.17
2019-02-16T01:23:32.046Z,52.97
2019-02-16T01:25:39.496Z,49.77
2019-02-16T01:27:46.660Z,61.03
2019-02-16T01:29:53.282Z,64.10
2019-02-16T01:32:00.256Z,56.23
2019-02-16T01:34:07.604Z,57.57
2019-02-16T01:36:14.444Z,51.47
2019-02-16T01:38:21.402Z,50.50
2019-02-16T01:40:30.083Z,56.83
2019-02-16T01:42:37.101Z,58.43
2019-02-16T01:44:43.969Z,54.93
2019-02-16T01:46:51.558Z,59.97
2019-02-16T01:48:59.018Z,57.73
2019-02-16T01:51:06.122Z,49.57
2019-02-16T01:53:13.111Z,52.43
2019-02-16T01:55:20.631Z,54.87
2019-02-16T01:57:27.796Z,58.67
2019-02-16T01:59:35.692Z,50.83
2019-02-16T02:01:43.283Z,48.83
2019-02-16T02:03:50.786Z,47.83
2019-02-16T02:05:58.334Z,46.77
2019-02-16T02:08:05.956Z,50.60
2019-02-16T02:10:13.150Z,48.47
2019-02-16T02:12:20.420Z,45.30
2019-02-16T02:14:27.535Z,48.20
2019-02-16T02:16:35.793Z,44.47
2019-02-16T02:18:43.228Z,41.97
2019-02-16T02:20:50.371Z,49.37
2019-02-16T02:22:57.484Z,39.80
2019-02-16T02:25:04.581Z,40.20
2019-02-16T02:27:12.198Z,39.87
2019-02-16T02:29:19.238Z,33.00
2019-02-16T02:31:26.975Z,45.33
2019-02-16T02:33:34.339Z,36.77
2019-02-16T02:35:41.862Z,42.73
2019-02-16T02:37:49.285Z,39.40
2019-02-16T02:39:56.432Z,41.33
2019-02-16T02:42:03.567Z,39.93
2019-02-16T02:44:10.491Z,41.37
2019-02-16T02:46:17.493Z,42.57
2019-02-16T02:48:24.650Z,34.83
2019-02-16T02:50:31.507Z,33.87
2019-02-16T02:52:39.236Z,37.00
2019-02-16T02:54:46.810Z,37.87
2019-02-16T02:56:54.023Z,33.33
2019-02-16T02:59:01.074Z,39.83
2019-02-16T03:01:08.172Z,35.10
2019-02-16T03:03:15.750Z,32.90
2019-02-16T03:05:22.729Z,30.00
2019-02-16T03:07:31.879Z,31.97
2019-02-16T03:09:38.839Z,36.17
2019-02-16T03:11:45.929Z,31.47
2019-02-16T03:13:53.218Z,29.57
2019-02-16T03:16:01.317Z,28.30
2019-02-16T03:18:08.598Z,31.20
2019-02-16T03:20:16.257Z,35.00
2019-02-16T03:22:24.309Z,28.67
2019-02-16T03:24:31.683Z,30.60
2019-02-16T03:26:44.611Z,32.33
2019-02-16T03:29:10.992Z,31.90
2019-02-16T03:31:25.113Z,30.90
2019-02-16T03:33:45.036Z,30.80
2019-02-16T03:36:20.993Z,32.83
2019-02-16T03:38:40.859Z,37.33
2019-02-16T03:40:50.600Z,38.50
2019-02-16T03:42:57.926Z,33.73
2019-02-16T03:45:07.115Z,35.43
2019-02-16T03:47:14.403Z,35.40
2019-02-16T03:49:21.871Z,34.37
2019-02-16T03:51:30.195Z,34.93
2019-02-16T03:53:37.763Z,35.33
2019-02-16T03:55:44.765Z,36.83
2019-02-16T03:57:52.354Z,37.17
2019-02-16T03:59:59.184Z,38.33
2019-02-16T04:02:06.863Z,33.90
2019-02-16T04:04:14.621Z,45.27
2019-02-16T04:06:22.032Z,40.17
2019-02-16T04:08:30.321Z,36.20
2019-02-16T04:10:37.468Z,31.63
2019-02-16T04:12:44.325Z,34.63
2019-02-16T04:14:51.602Z,38.90
2019-02-16T04:16:59.570Z,37.77
2019-02-16T04:19:06.643Z,40.17
2019-02-16T04:21:13.809Z,42.87
2019-02-16T04:23:21.256Z,37.77
2019-02-16T04:25:28.709Z,44.47
2019-02-16T04:27:35.589Z,36.00
2019-02-16T04:29:42.971Z,32.07
2019-02-16T04:31:49.929Z,35.47
2019-02-16T04:33:57.148Z,30.77
2019-02-16T04:36:04.069Z,34.30
2019-02-16T04:38:11.379Z,30.00
2019-02-16T04:40:18.832Z,29.40
2019-02-16T04:42:26.449Z,28.17
2019-02-16T04:44:33.496Z,30.37
2019-02-16T04:46:41.824Z,28.87
2019-02-16T04:48:48.875Z,24.43
2019-02-16T04:50:56.603Z,30.60
2019-02-16T04:53:04.060Z,29.20
2019-02-16T04:55:11.725Z,33.10
2019-02-16T04:57:19.283Z,34.10
2019-02-16T04:59:26.602Z,35.20
2019-02-16T05:01:33.790Z,29.50
2019-02-16T05:03:41.088Z,30.20
2019-02-16T05:05:49.528Z,31.63
2019-02-16T05:07:56.370Z,33.53
2019-02-16T05:10:05.090Z,33.97
2019-02-16T05:12:12.616Z,73.57
2019-02-16T05:14:19.611Z,48.60
2019-02-16T05:16:26.833Z,72.13
2019-02-16T05:18:34.177Z,55.57
2019-02-16T05:20:41.512Z,42.43
2019-02-16T05:22:48.616Z,36.20
2019-02-16T05:24:55.586Z,38.93
2019-02-16T05:27:03.007Z,33.03
2019-02-16T05:29:10.491Z,30.67
2019-02-16T05:31:17.693Z,33.93
2019-02-16T05:33:25.220Z,31.30
2019-02-16T05:35:32.278Z,31.93
2019-02-16T05:37:39.993Z,32.27
2019-02-16T05:39:47.008Z,30.70
2019-02-16T05:41:54.478Z,34.03
2019-02-16T05:44:01.886Z,30.03
2019-02-16T05:46:09.118Z,31.17
2019-02-16T05:48:16.591Z,29.47
2019-02-16T05:50:23.188Z,35.97
2019-02-16T05:52:30.378Z,37.37
2019-02-16T05:54:38.213Z,33.03
2019-02-16T05:56:46.948Z,34.33
2019-02-16T05:58:54.129Z,33.70
2019-02-16T06:01:00.972Z,42.37
2019-02-16T06:03:08.106Z,40.63
2019-02-16T06:05:17.485Z,34.67
2019-02-16T06:07:24.363Z,38.50
2019-02-16T06:09:31.318Z,37.60
2019-02-16T06:11:38.475Z,36.53
2019-02-16T06:13:45.669Z,45.43
2019-02-16T06:15:52.563Z,39.33
2019-02-16T06:17:59.503Z,43.63
2019-02-16T06:20:08.953Z,42.57
2019-02-16T06:22:16.051Z,46.17
2019-02-16T06:24:23.243Z,35.00
2019-02-16T06:26:29.926Z,38.37
2019-02-16T06:28:37.125Z,40.93
2019-02-16T06:30:44.633Z,34.23
2019-02-16T06:32:53.143Z,34.00
2019-02-16T06:35:10.913Z,31.83
2019-02-16T06:37:25.010Z,30.00
2019-02-16T06:39:32.561Z,38.23
2019-02-16T06:41:40.124Z,33.43
2019-02-16T06:43:46.836Z,31.70
2019-02-16T06:45:53.820Z,32.07
2019-02-16T06:48:00.794Z,33.27
2019-02-16T06:50:09.424Z,32.30
2019-02-16T06:52:17.504Z,35.67
2019-02-16T06:54:24.263Z,34.23
2019-02-16T06:56:34.304Z,42.30
2019-02-16T06:58:41.413Z,34.67
2019-02-16T07:00:48.650Z,30.93
2019-02-16T07:02:55.932Z,41.93
2019-02-16T07:05:02.742Z,49.87
2019-02-16T07:07:11.228Z,88.50
2019-02-16T07:09:19.050Z,41.37
2019-02-16T07:11:27.939Z,56.30
2019-02-16T07:13:34.877Z,47.07
2019-02-16T07:15:41.805Z,39.93
2019-02-16T07:17:53.211Z,40.93
2019-02-16T07:20:00.372Z,33.97
2019-02-16T07:22:08.058Z,33.73
2019-02-16T07:24:14.824Z,33.00
2019-02-16T07:26:22.046Z,32.60
2019-02-16T07:28:28.911Z,35.43
2019-02-16T07:30:35.796Z,32.00
2019-02-16T07:32:42.648Z,32.93
2019-02-16T07:34:49.543Z,33.90
2019-02-16T07:36:56.863Z,32.10
2019-02-16T07:39:05.312Z,33.77
2019-02-16T07:41:12.812Z,31.53
2019-02-16T07:43:36.592Z,36.00
2019-02-16T07:45:45.360Z,35.43
2019-02-16T07:48:13.062Z,42.50
2019-02-16T07:50:21.626Z,38.37
2019-02-16T07:52:33.483Z,34.47
2019-02-16T07:54:40.878Z,40.07
2019-02-16T07:56:58.896Z,40.20
2019-02-16T07:59:16.976Z,30.70
2019-02-16T08:01:30.047Z,42.43
2019-02-16T08:03:38.765Z,39.40
2019-02-16T08:06:00.283Z,34.23
2019-02-16T08:08:19.242Z,36.57
2019-02-16T08:10:33.305Z,40.90
2019-02-16T08:12:41.837Z,40.00
2019-02-16T08:14:48.762Z,40.80
2019-02-16T08:17:00.636Z,39.07
2019-02-16T08:19:28.555Z,41.03
2019-02-16T08:21:39.108Z,31.33
2019-02-16T08:24:05.647Z,45.40
2019-02-16T08:26:17.285Z,40.30
2019-02-16T08:28:26.871Z,49.97
2019-02-16T08:30:38.409Z,36.43
2019-02-16T08:32:53.442Z,50.77
2019-02-16T08:35:18.310Z,48.17
2019-02-16T08:37:26.896Z,50.00
2019-02-16T08:39:35.633Z,46.37
2019-02-16T08:41:50.215Z,43.57
2019-02-16T08:44:03.176Z,43.27
2019-02-16T08:46:31.337Z,45.30
2019-02-16T08:48:56.271Z,49.07
2019-02-16T08:51:04.586Z,66.87
2019-02-16T08:53:20.383Z,48.70
2019-02-16T08:55:35.445Z,47.47
2019-02-16T08:57:46.918Z,48.43
2019-02-16T09:00:02.531Z,58.93
2019-02-16T09:02:11.432Z,48.13
2019-02-16T09:04:26.385Z,96.50
2019-02-16T09:06:33.066Z,72.27
2019-02-16T09:08:41.785Z,66.20
2019-02-16T09:11:02.876Z,42.57
2019-02-16T09:13:18.067Z,45.63
2019-02-16T09:15:27.328Z,44.03
2019-02-16T09:17:40.835Z,45.37
2019-02-16T09:19:47.284Z,44.77
2019-02-16T09:21:54.780Z,47.50
2019-02-16T09:24:21.206Z,42.90
2019-02-16T09:26:36.265Z,90.23
2019-02-16T09:28:48.116Z,65.60
2019-02-16T09:31:15.024Z,49.53
2019-02-16T09:33:26.686Z,55.93
2019-02-16T09:35:38.685Z,45.73
2019-02-16T09:37:56.474Z,94.97
2019-02-16T09:40:03.359Z,146.90
2019-02-16T09:42:28.592Z,70.13
2019-02-16T09:44:44.174Z,60.07
2019-02-16T09:46:59.844Z,52.73
2019-02-16T09:49:17.593Z,51.87
2019-02-16T09:51:35.935Z,52.40
2019-02-16T09:54:08.190Z,48.73
2019-02-16T09:56:22.473Z,45.13
2019-02-16T09:58:34.114Z,41.67
2019-02-16T10:00:50.014Z,45.80
2019-02-16T10:03:15.444Z,45.60
2019-02-16T10:05:33.981Z,45.60
2019-02-16T10:07:48.625Z,45.30
2019-02-16T10:09:56.945Z,46.60
2019-02-16T10:12:13.154Z,39.77
2019-02-16T10:14:28.264Z,49.00
2019-02-16T10:16:39.786Z,155.47
2019-02-16T10:18:52.279Z,64.80
2019-02-16T10:21:00.824Z,43.37
2019-02-16T10:23:08.842Z,46.50
2019-02-16T10:25:24.276Z,41.50
2019-02-16T10:27:52.474Z,42.47
2019-02-16T10:30:11.414Z,41.97
2019-02-16T10:32:30.565Z,45.80
2019-02-16T10:34:53.917Z,45.20
2019-02-16T10:37:15.042Z,45.53
2019-02-16T10:39:26.836Z,47.50
2019-02-16T10:41:38.527Z,46.47
2019-02-16T10:44:00.793Z,41.33
2019-02-16T10:46:26.586Z,45.90
2019-02-16T10:48:42.746Z,51.07
2019-02-16T10:50:54.246Z,41.43
2019-02-16T10:53:15.088Z,41.03
2019-02-16T10:55:40.356Z,37.73
2019-02-16T10:57:52.053Z,41.63
2019-02-16T11:00:01.007Z,46.67
2019-02-16T11:02:17.060Z,46.03
2019-02-16T11:04:38.007Z,43.63
2019-02-16T11:06:57.610Z,42.47
2019-02-16T11:09:16.363Z,43.43
2019-02-16T11:11:31.533Z,45.20
2019-02-16T11:13:44.474Z,31.50
2019-02-16T11:15:56.365Z,36.53
2019-02-16T11:18:11.124Z,34.70
2019-02-16T11:20:35.881Z,36.53
2019-02-16T11:23:01.113Z,35.20
2019-02-16T11:25:17.325Z,30.90
2019-02-16T11:27:35.127Z,34.10
2019-02-16T11:29:49.372Z,33.30
2019-02-16T11:32:01.493Z,36.50
2019-02-16T11:34:13.785Z,42.50
2019-02-16T11:36:27.015Z,34.10
2019-02-16T11:38:33.792Z,65.53
2019-02-16T11:40:48.199Z,51.13
2019-02-16T11:43:00.135Z,62.53
2019-02-16T11:45:27.565Z,46.57
2019-02-16T11:47:54.224Z,34.57
2019-02-16T11:50:05.500Z,40.57
2019-02-16T11:52:33.894Z,54.47
2019-02-16T11:54:45.657Z,87.27
2019-02-16T11:56:52.693Z,55.90
2019-02-16T11:59:13.783Z,64.57
2019-02-16T12:01:32.917Z,46.93
2019-02-16T12:03:58.954Z,41.93
2019-02-16T12:06:23.054Z,39.33
2019-02-16T12:08:31.464Z,41.33
2019-02-16T12:10:39.954Z,35.63
2019-02-16T12:12:54.120Z,114.90
2019-02-16T12:15:02.717Z,51.10
2019-02-16T12:17:11.485Z,35.10
2019-02-16T12:19:22.915Z,44.03
2019-02-16T12:21:57.849Z,45.97
2019-02-16T12:24:10.053Z,31.10
2019-02-16T12:26:18.504Z,34.20
2019-02-16T12:28:44.825Z,43.63
2019-02-16T12:30:56.215Z,36.17
2019-02-16T12:33:05.303Z,34.90
2019-02-16T12:35:13.863Z,36.80
2019-02-16T12:37:22.526Z,43.83
2019-02-16T12:39:34.517Z,35.40
2019-02-16T12:41:46.175Z,33.57
2019-02-16T12:43:54.540Z,30.43
2019-02-16T12:46:03.124Z,35.80
2019-02-16T12:48:20.634Z,44.83
2019-02-16T12:50:35.434Z,52.57
2019-02-16T12:52:50.165Z,39.60
2019-02-16T12:55:02.477Z,36.43
2019-02-16T12:57:26.845Z,49.77
2019-02-16T12:59:38.155Z,40.50
2019-02-16T13:01:44.800Z,39.97
2019-02-16T13:04:11.706Z,33.23
2019-02-16T13:06:32.345Z,47.07
2019-02-16T13:08:43.631Z,30.33
2019-02-16T13:10:52.325Z,33.67
2019-02-16T13:13:04.174Z,69.20
2019-02-16T13:15:12.771Z,58.00
2019-02-16T13:17:39.899Z,41.13
2019-02-16T13:19:54.667Z,51.43
2019-02-16T13:22:09.934Z,39.57
2019-02-16T13:24:18.445Z,81.43
2019-02-16T13:26:27.277Z,48.17
2019-02-16T13:28:52.754Z,36.97
2019-02-16T13:31:17.674Z,32.37
2019-02-16T13:33:38.735Z,34.07
2019-02-16T13:35:58.501Z,37.33
2019-02-16T13:38:17.104Z,34.77
2019-02-16T13:40:38.624Z,44.13
2019-02-16T13:42:45.504Z,41.07
2019-02-16T13:44:54.114Z,42.70
2019-02-16T13:47:12.071Z,43.50
2019-02-16T13:49:23.741Z,52.27
2019-02-16T13:51:39.004Z,36.07
2019-02-16T13:53:47.563Z,38.83
2019-02-16T13:55:56.133Z,36.80
2019-02-16T13:58:11.122Z,29.50
2019-02-16T14:00:21.243Z,33.47
2019-02-16T14:02:32.833Z,35.83
2019-02-16T14:04:47.593Z,38.87
2019-02-16T14:07:04.112Z,37.03
2019-02-16T14:09:19.673Z,30.33
2019-02-16T14:11:28.998Z,38.73
2019-02-16T14:13:46.328Z,32.37
2019-02-16T14:15:57.798Z,32.97
2019-02-16T14:18:05.081Z,32.70
2019-02-16T14:20:12.483Z,37.67
2019-02-16T14:22:19.713Z,35.13
2019-02-16T14:24:40.473Z,29.97
2019-02-16T14:26:47.313Z,30.27
2019-02-16T14:28:54.502Z,42.07
2019-02-16T14:31:01.472Z,44.77
2019-02-16T14:33:09.404Z,68.43
2019-02-16T14:35:18.107Z,60.90
2019-02-16T14:37:28.190Z,47.90
2019-02-16T14:39:35.446Z,45.83
2019-02-16T14:41:42.473Z,46.33
2019-02-16T14:43:49.517Z,43.73
2019-02-16T14:45:56.654Z,39.97
2019-02-16T14:48:03.678Z,40.77
2019-02-16T14:50:11.865Z,44.70
2019-02-16T14:52:20.451Z,49.90
2019-02-16T14:54:28.954Z,37.40
2019-02-16T14:56:36.748Z,37.97
2019-02-16T14:58:43.794Z,38.80
2019-02-16T15:00:52.106Z,51.10
2019-02-16T15:02:59.189Z,36.73
2019-02-16T15:05:07.160Z,33.53
2019-02-16T15:07:14.496Z,35.63
2019-02-16T15:09:21.324Z,40.33
2019-02-16T15:11:28.033Z,49.40
2019-02-16T15:13:34.992Z,49.77
2019-02-16T15:15:42.554Z,44.83
2019-02-16T15:17:50.436Z,53.07
2019-02-16T15:19:57.952Z,55.53
2019-02-16T15:22:05.044Z,69.73
2019-02-16T15:24:11.937Z,51.13
2019-02-16T15:26:28.358Z,56.30
2019-02-16T15:28:30.614Z,52.70
2019-02-16T15:30:37.849Z,57.20
2019-02-16T15:32:45.245Z,73.10
2019-02-16T15:34:52.649Z,56.17
2019-02-16T15:37:00.070Z,53.27
2019-02-16T15:39:08.680Z,52.60
2019-02-16T15:41:16.428Z,50.87
2019-02-16T15:43:23.897Z,53.93
2019-02-16T15:45:32.507Z,61.63
2019-02-16T15:47:40.276Z,52.50
2019-02-16T15:49:47.510Z,61.93
2019-02-16T15:51:54.413Z,54.60
2019-02-16T15:54:01.958Z,55.70
2019-02-16T15:56:10.791Z,50.63
2019-02-16T15:58:18.241Z,50.23
2019-02-16T16:00:27.626Z,45.40
2019-02-16T16:02:34.498Z,53.57
2019-02-16T16:04:41.951Z,54.50
2019-02-16T16:06:49.093Z,49.67
2019-02-16T16:08:59.163Z,50.87
2019-02-16T16:11:11.977Z,70.47
2019-02-16T16:13:39.371Z,56.97
2019-02-16T16:15:50.928Z,52.73
2019-02-16T16:17:59.599Z,55.20
2019-02-16T16:22:36.421Z,59.50
2019-02-16T16:25:01.621Z,56.53
2019-02-16T16:27:25.732Z,67.33
2019-02-16T16:29:40.200Z,58.83
2019-02-16T16:31:55.351Z,55.10
2019-02-16T16:34:03.910Z,69.87
2019-02-16T16:36:21.330Z,64.53
2019-02-16T16:38:29.940Z,63.80
2019-02-16T16:40:43.161Z,65.37
2019-02-16T16:43:01.805Z,53.57
2019-02-16T16:45:18.950Z,61.47
2019-02-16T16:47:33.251Z,55.17
2019-02-16T16:49:50.883Z,55.77
2019-02-16T16:52:18.034Z,53.50
2019-02-16T16:54:34.647Z,58.63
2019-02-16T16:56:44.277Z,51.80
2019-02-16T16:58:53.022Z,54.23
2019-02-16T17:01:19.833Z,67.83
2019-02-16T17:03:26.523Z,67.07
2019-02-16T17:05:44.235Z,72.43
2019-02-16T17:08:03.583Z,89.03
2019-02-16T17:10:30.963Z,75.40
2019-02-16T17:12:42.472Z,70.07
2019-02-16T17:15:10.923Z,73.50
2019-02-16T17:17:22.204Z,83.37
2019-02-16T17:19:30.753Z,86.77
2019-02-16T17:21:54.664Z,74.37
2019-02-16T17:24:13.814Z,79.27
2019-02-16T17:26:20.783Z,81.27
2019-02-16T17:28:45.996Z,78.07
2019-02-16T17:30:54.973Z,76.83
2019-02-16T17:33:03.793Z,91.07
2019-02-16T17:35:19.263Z,120.17
2019-02-16T17:37:27.710Z,125.60
2019-02-16T17:40:00.327Z,91.53
2019-02-16T17:42:08.904Z,83.60
2019-02-16T17:44:35.863Z,96.93
2019-02-16T17:46:47.795Z,85.20
2019-02-16T17:49:12.890Z,82.83
2019-02-16T17:51:39.424Z,104.90
2019-02-16T17:53:46.294Z,70.20
2019-02-16T17:56:13.753Z,122.20
2019-02-16T17:58:22.711Z,92.07
2019-02-16T18:00:32.903Z,63.43
2019-02-16T18:02:41.772Z,68.10
2019-02-16T18:04:56.421Z,95.27
2019-02-16T18:07:05.055Z,69.30
2019-02-16T18:09:25.713Z,58.37
2019-02-16T18:11:40.664Z,54.47
2019-02-16T18:13:52.953Z,56.67
2019-02-16T18:16:02.037Z,62.47
2019-02-16T18:18:27.635Z,66.60
2019-02-16T18:20:36.675Z,81.83
2019-02-16T18:22:45.917Z,62.53
2019-02-16T18:25:11.602Z,51.63
2019-02-16T18:27:20.924Z,53.53
2019-02-16T18:29:46.033Z,46.60
2019-02-16T18:32:11.554Z,49.90
2019-02-16T18:34:26.311Z,66.53
2019-02-16T18:36:35.074Z,62.23
2019-02-16T18:38:43.824Z,50.97
2019-02-16T18:40:52.506Z,60.27
2019-02-16T18:43:04.671Z,52.63
2019-02-16T18:45:23.113Z,49.70
2019-02-16T18:47:41.354Z,52.13
2019-02-16T18:49:56.909Z,54.37
2019-02-16T18:52:10.559Z,49.53
2019-02-16T18:54:23.662Z,51.43
2019-02-16T18:56:31.156Z,54.40
2019-02-16T18:58:47.767Z,45.13
2019-02-16T19:01:06.106Z,47.43
2019-02-16T19:03:21.596Z,44.93
2019-02-16T19:05:46.842Z,56.90
2019-02-16T19:08:14.575Z,65.70
2019-02-16T19:10:26.751Z,70.67
2019-02-16T19:12:52.483Z,94.53
2019-02-16T19:15:08.776Z,90.33
2019-02-16T19:17:28.244Z,72.67
2019-02-16T19:19:53.544Z,76.90
2019-02-16T19:22:00.842Z,67.80
2019-02-16T19:24:15.052Z,75.23
2019-02-16T19:26:29.449Z,79.17
2019-02-16T19:28:52.016Z,66.07
2019-02-16T19:31:17.369Z,73.20
2019-02-16T19:33:37.611Z,119.70
2019-02-16T19:35:50.994Z,67.53
2019-02-16T19:38:15.821Z,65.70
2019-02-16T19:40:34.474Z,59.40
2019-02-16T19:42:49.614Z,65.27
2019-02-16T19:45:17.047Z,55.50
2019-02-16T19:47:32.447Z,61.00
2019-02-16T19:49:40.672Z,59.40
2019-02-16T19:51:53.672Z,67.27
2019-02-16T19:54:04.441Z,68.80
2019-02-16T19:56:14.954Z,67.47
2019-02-16T19:58:28.437Z,66.33
2019-02-16T20:00:48.565Z,50.57
2019-02-16T20:03:04.077Z,54.70
2019-02-16T20:05:21.318Z,52.90
2019-02-16T20:07:42.272Z,53.43
2019-02-16T20:09:59.406Z,64.47
2019-02-16T20:12:19.887Z,74.93
2019-02-16T20:14:29.844Z,64.33
2019-02-16T20:16:39.360Z,54.20
2019-02-16T20:18:59.334Z,54.70
2019-02-16T20:21:11.380Z,52.97
2019-02-16T20:23:21.707Z,58.33
2019-02-16T20:25:49.234Z,54.63
2019-02-16T20:28:09.716Z,52.00
2019-02-16T20:30:28.075Z,57.30
2019-02-16T20:32:37.252Z,57.27
2019-02-16T20:34:48.012Z,52.10
2019-02-16T20:36:57.126Z,54.13
2019-02-16T20:39:11.087Z,53.00
2019-02-16T20:41:38.134Z,50.43
2019-02-16T20:43:53.069Z,52.53
2019-02-16T20:46:05.910Z,57.23
2019-02-16T20:48:19.233Z,58.47
2019-02-16T20:50:38.039Z,57.90
2019-02-16T20:52:47.003Z,53.10
2019-02-16T20:55:08.440Z,73.20
2019-02-16T20:57:32.654Z,64.63
2019-02-16T20:59:51.023Z,54.43
2019-02-16T21:02:03.133Z,55.03
2019-02-16T21:04:18.336Z,59.10
2019-02-16T21:06:27.174Z,56.13
2019-02-16T21:08:34.236Z,55.53
2019-02-16T21:10:43.333Z,56.13
2019-02-16T21:12:51.904Z,64.43
2019-02-16T21:15:08.260Z,62.50
2019-02-16T21:17:31.734Z,55.03
2019-02-16T21:19:44.135Z,45.17
2019-02-16T21:22:07.247Z,56.20
2019-02-16T21:24:22.684Z,46.30
2019-02-16T21:26:47.414Z,51.73
2019-02-16T21:29:08.254Z,57.83
2019-02-16T21:31:29.633Z,50.57
2019-02-16T21:33:48.092Z,56.07
2019-02-16T21:36:02.694Z,50.33
2019-02-16T21:38:29.393Z,55.23
2019-02-16T21:40:47.154Z,45.73
2019-02-16T21:42:58.833Z,50.77
2019-02-16T21:45:08.291Z,48.60
2019-02-16T21:47:35.106Z,52.90
2019-02-16T21:50:00.414Z,56.37
2019-02-16T21:52:12.924Z,50.37
2019-02-16T21:54:22.986Z,60.17
2019-02-16T21:56:44.175Z,60.30
2019-02-16T21:58:53.211Z,55.13
2019-02-16T22:01:08.251Z,53.80
2019-02-16T22:03:20.944Z,46.40
2019-02-16T22:05:32.878Z,56.17
2019-02-16T22:07:41.613Z,49.23
2019-02-16T22:09:53.180Z,49.77
2019-02-16T22:12:08.762Z,54.23
2019-02-16T22:14:16.704Z,53.23
2019-02-16T22:16:23.643Z,44.07
2019-02-16T22:18:30.514Z,50.00
2019-02-16T22:20:37.502Z,51.47
2019-02-16T22:22:44.973Z,56.00
2019-02-16T22:24:52.264Z,48.07
2019-02-16T22:26:59.243Z,51.37
2019-02-16T22:29:07.594Z,54.23
2019-02-16T22:31:15.023Z,55.77
2019-02-16T22:33:22.720Z,50.40
2019-02-16T22:35:30.005Z,46.30
2019-02-16T22:37:37.003Z,51.60
2019-02-16T22:39:43.954Z,50.63
2019-02-16T22:41:51.531Z,44.43
2019-02-16T22:43:58.413Z,52.57
2019-02-16T22:46:05.382Z,60.00
2019-02-16T22:48:12.790Z,48.00
2019-02-16T22:50:19.926Z,48.30
2019-02-16T22:52:26.790Z,48.70
2019-02-16T22:54:34.953Z,51.40
2019-02-16T22:56:41.751Z,46.87
2019-02-16T22:58:49.493Z,44.10
2019-02-16T23:00:56.939Z,55.43
2019-02-16T23:03:05.985Z,45.73
2019-02-16T23:05:13.004Z,42.73
2019-02-16T23:07:20.463Z,50.07
2019-02-16T23:09:28.677Z,43.40
2019-02-16T23:11:35.903Z,45.13
2019-02-16T23:13:42.881Z,39.87
2019-02-16T23:15:50.415Z,40.03
2019-02-16T23:17:57.603Z,41.97
2019-02-16T23:20:05.241Z,47.53
2019-02-16T23:22:12.311Z,46.53
2019-02-16T23:24:19.348Z,45.10
2019-02-16T23:26:27.381Z,48.20
2019-02-16T23:28:38.914Z,43.63
2019-02-16T23:30:43.406Z,46.30
2019-02-16T23:32:50.086Z,48.17
2019-02-16T23:34:57.276Z,40.93
2019-02-16T23:37:04.320Z,43.23
2019-02-16T23:39:12.690Z,45.73
2019-02-16T23:41:19.702Z,49.07
2019-02-16T23:43:34.313Z,47.90
2019-02-16T23:46:01.693Z,50.57
2019-02-16T23:48:09.587Z,57.50
2019-02-16T23:50:17.082Z,42.53
2019-02-16T23:52:25.165Z,49.17
2019-02-16T23:54:32.871Z,46.87
2019-02-16T23:56:40.373Z,53.53
2019-02-16T23:58:49.523Z,46.23
